createdAt,value
2019-03-31T00:01:07.653Z,48.40
2019-03-31T00:03:52.701Z,47.65
2019-03-31T00:06:49.409Z,48.25
2019-03-31T00:09:45.654Z,49.80
2019-03-31T00:12:41.955Z,49.25
2019-03-31T00:15:38.540Z,50.58
2019-03-31T00:18:34.883Z,49.05
2019-03-31T00:21:31.362Z,48.68
2019-03-31T00:24:28.127Z,48.87
2019-03-31T00:27:24.341Z,50.05
2019-03-31T00:30:20.629Z,49.15
2019-03-31T00:33:17.214Z,49.13
2019-03-31T00:36:13.807Z,48.78
2019-03-31T00:39:11.531Z,49.08
2019-03-31T00:42:07.928Z,48.73
2019-03-31T00:45:04.758Z,48.52
2019-03-31T00:48:01.841Z,49.42
2019-03-31T00:50:58.141Z,48.75
2019-03-31T00:53:54.674Z,52.60
2019-03-31T00:56:50.970Z,49.88
2019-03-31T00:59:47.411Z,50.85
2019-03-31T01:02:44.434Z,48.98
2019-03-31T01:05:41.736Z,50.50
2019-03-31T01:08:38.967Z,49.65
2019-03-31T01:11:35.661Z,50.40
2019-03-31T01:14:32.640Z,51.48
2019-03-31T01:17:30.262Z,51.95
2019-03-31T01:20:26.855Z,53.30
2019-03-31T01:23:23.197Z,55.10
2019-03-31T01:26:21.269Z,54.42
2019-03-31T01:29:18.468Z,54.75
2019-03-31T01:32:15.379Z,57.58
2019-03-31T01:35:12.192Z,55.33
2019-03-31T01:38:09.957Z,56.02
2019-03-31T01:41:06.495Z,57.17
2019-03-31T01:44:02.876Z,57.62
2019-03-31T01:46:59.994Z,58.05
2019-03-31T01:49:56.596Z,58.48
2019-03-31T01:52:53.915Z,61.15
2019-03-31T01:55:50.851Z,61.05
2019-03-31T01:58:47.381Z,63.60
2019-03-31T02:01:43.941Z,65.42
2019-03-31T02:04:42.383Z,66.55
2019-03-31T02:07:39.167Z,68.02
2019-03-31T02:10:36.202Z,86.87
2019-03-31T02:13:33.247Z,92.20
2019-03-31T02:16:29.997Z,85.38
2019-03-31T02:19:27.145Z,82.70
2019-03-31T02:22:23.830Z,77.70
2019-03-31T02:25:20.228Z,79.95
2019-03-31T02:28:17.055Z,80.85
2019-03-31T02:31:14.826Z,81.50
2019-03-31T02:34:12.589Z,85.07
2019-03-31T02:37:10.580Z,87.57
2019-03-31T02:40:08.317Z,83.78
2019-03-31T02:43:04.655Z,85.97
2019-03-31T02:46:02.645Z,88.40
2019-03-31T02:48:59.316Z,86.75
2019-03-31T02:51:56.197Z,85.45
2019-03-31T02:54:52.588Z,84.70
2019-03-31T02:57:49.770Z,87.50
2019-03-31T03:00:47.197Z,87.47
2019-03-31T03:03:44.446Z,90.03
2019-03-31T03:06:41.935Z,95.45
2019-03-31T03:09:39.823Z,94.15
2019-03-31T03:12:38.414Z,96.10
2019-03-31T03:15:37.235Z,102.65
2019-03-31T03:18:35.231Z,100.40
2019-03-31T03:21:32.296Z,106.63
2019-03-31T03:24:29.063Z,110.52
2019-03-31T03:27:26.104Z,109.12
2019-03-31T03:30:22.925Z,108.92
2019-03-31T03:33:20.286Z,120.08
2019-03-31T03:36:18.073Z,112.15
2019-03-31T03:39:15.190Z,116.10
2019-03-31T03:42:11.636Z,120.30
2019-03-31T03:45:09.295Z,117.65
2019-03-31T03:48:07.482Z,120.82
2019-03-31T03:51:04.543Z,113.17
2019-03-31T03:54:01.049Z,111.32
2019-03-31T03:56:57.609Z,113.15
2019-03-31T03:59:54.405Z,108.92
2019-03-31T04:02:51.431Z,109.90
2019-03-31T04:05:48.906Z,110.08
2019-03-31T04:08:47.139Z,114.35
2019-03-31T04:11:44.532Z,128.57
2019-03-31T04:14:41.425Z,125.87
2019-03-31T04:17:37.909Z,121.75
2019-03-31T04:20:39.102Z,109.30
2019-03-31T04:23:31.732Z,104.87
2019-03-31T04:26:28.429Z,148.25
2019-03-31T04:29:25.053Z,103.50
2019-03-31T04:32:21.728Z,102.20
2019-03-31T04:35:18.745Z,113.83
2019-03-31T04:38:15.494Z,101.35
2019-03-31T04:41:12.635Z,88.82
2019-03-31T04:44:09.521Z,83.30
2019-03-31T04:47:06.054Z,91.95
2019-03-31T04:50:03.011Z,71.28
2019-03-31T04:52:59.647Z,73.72
2019-03-31T04:55:57.610Z,83.45
2019-03-31T04:58:54.512Z,82.00
2019-03-31T05:01:52.275Z,75.87
2019-03-31T05:04:48.880Z,66.22
2019-03-31T05:07:45.739Z,71.65
2019-03-31T05:10:42.737Z,64.85
2019-03-31T05:13:39.792Z,68.25
2019-03-31T05:16:36.681Z,60.33
2019-03-31T05:19:33.753Z,61.20
2019-03-31T05:22:30.000Z,59.88
2019-03-31T05:25:26.875Z,60.15
2019-03-31T05:28:24.538Z,58.33
2019-03-31T05:31:21.105Z,56.75
2019-03-31T05:34:19.294Z,55.25
2019-03-31T05:37:16.672Z,57.62
2019-03-31T05:40:13.743Z,56.02
2019-03-31T05:43:10.655Z,56.60
2019-03-31T05:46:08.892Z,58.80
2019-03-31T05:49:05.524Z,58.28
2019-03-31T05:52:02.230Z,58.55
2019-03-31T05:54:58.818Z,56.05
2019-03-31T05:57:55.576Z,58.50
2019-03-31T06:00:54.163Z,59.27
2019-03-31T06:03:50.220Z,57.45
2019-03-31T06:06:46.277Z,60.45
2019-03-31T06:09:42.525Z,56.02
2019-03-31T06:12:39.062Z,60.90
2019-03-31T06:15:35.683Z,54.77
2019-03-31T06:18:32.190Z,55.33
2019-03-31T06:21:29.268Z,52.67
2019-03-31T06:24:25.471Z,54.15
2019-03-31T06:27:21.560Z,51.20
2019-03-31T06:30:19.385Z,46.35
2019-03-31T06:33:16.816Z,41.73
2019-03-31T06:36:16.628Z,40.83
2019-03-31T06:39:14.309Z,36.10
2019-03-31T06:42:12.313Z,38.63
2019-03-31T06:45:11.128Z,45.17
2019-03-31T06:48:09.689Z,44.45
2019-03-31T06:51:06.507Z,43.70
2019-03-31T06:54:03.673Z,42.98
2019-03-31T06:57:01.668Z,40.80
2019-03-31T07:00:01.207Z,40.20
2019-03-31T07:02:59.733Z,40.20
2019-03-31T07:05:58.504Z,40.25
2019-03-31T07:08:55.527Z,41.20
2019-03-31T07:11:55.596Z,44.53
2019-03-31T07:14:54.611Z,40.55
2019-03-31T07:17:52.694Z,38.02
2019-03-31T07:20:49.933Z,37.55
2019-03-31T07:23:48.974Z,39.35
2019-03-31T07:26:47.129Z,36.65
2019-03-31T07:29:44.064Z,38.55
2019-03-31T07:32:40.898Z,38.50
2019-03-31T07:35:39.229Z,38.02
2019-03-31T07:38:39.293Z,37.93
2019-03-31T07:41:35.740Z,36.28
2019-03-31T07:44:33.233Z,33.42
2019-03-31T07:47:29.985Z,33.78
2019-03-31T07:50:28.915Z,34.75
2019-03-31T07:53:27.389Z,38.08
2019-03-31T07:56:25.241Z,35.13
2019-03-31T07:59:23.024Z,32.10
2019-03-31T08:02:19.785Z,32.80
2019-03-31T08:05:17.161Z,32.58
2019-03-31T08:08:13.776Z,32.42
2019-03-31T08:11:11.316Z,30.72
2019-03-31T08:14:10.611Z,30.32
2019-03-31T08:17:12.065Z,30.85
2019-03-31T08:20:12.692Z,28.75
2019-03-31T08:23:11.587Z,29.55
2019-03-31T08:26:08.181Z,30.43
2019-03-31T08:29:04.620Z,23.00
2019-03-31T08:32:01.683Z,23.00
2019-03-31T08:34:59.218Z,22.62
2019-03-31T08:38:00.223Z,23.05
2019-03-31T08:40:58.253Z,22.48
2019-03-31T08:43:57.649Z,23.35
2019-03-31T08:46:55.512Z,23.22
2019-03-31T08:49:55.698Z,22.52
2019-03-31T08:52:53.053Z,24.05
2019-03-31T08:55:49.498Z,25.27
2019-03-31T08:58:46.240Z,23.50
2019-03-31T09:01:43.296Z,23.90
2019-03-31T09:04:39.869Z,23.30
2019-03-31T09:07:36.358Z,25.20
2019-03-31T09:10:32.856Z,22.80
2019-03-31T09:13:29.752Z,22.37
2019-03-31T09:16:26.782Z,22.02
2019-03-31T09:19:23.477Z,20.97
2019-03-31T09:22:20.455Z,19.52
2019-03-31T09:25:18.600Z,19.27
2019-03-31T09:28:14.828Z,18.17
2019-03-31T09:31:12.880Z,18.60
2019-03-31T09:34:11.182Z,18.42
2019-03-31T09:37:08.952Z,18.10
2019-03-31T09:40:05.738Z,17.15
2019-03-31T09:43:03.247Z,15.40
2019-03-31T09:45:59.757Z,16.75
2019-03-31T09:48:56.787Z,17.85
2019-03-31T09:51:53.965Z,17.92
2019-03-31T09:54:50.699Z,18.92
2019-03-31T09:57:47.331Z,20.43
2019-03-31T10:00:52.537Z,20.60
2019-03-31T10:03:48.996Z,21.90
2019-03-31T10:06:46.066Z,18.73
2019-03-31T10:09:43.055Z,23.05
2019-03-31T10:12:39.224Z,21.85
2019-03-31T10:15:35.749Z,22.13
2019-03-31T10:18:31.896Z,21.20
2019-03-31T10:21:29.195Z,23.90
2019-03-31T10:24:25.754Z,24.05
2019-03-31T10:27:23.429Z,21.62
2019-03-31T10:30:21.221Z,24.00
2019-03-31T10:33:17.873Z,24.10
2019-03-31T10:36:15.467Z,26.87
2019-03-31T10:39:13.734Z,24.02
2019-03-31T10:42:10.797Z,23.47
2019-03-31T10:45:07.745Z,22.65
2019-03-31T10:48:19.280Z,22.70
2019-03-31T10:51:10.402Z,19.98
2019-03-31T10:54:18.907Z,17.52
2019-03-31T10:57:17.090Z,18.25
2019-03-31T11:00:15.794Z,20.72
2019-03-31T11:03:14.627Z,25.35
2019-03-31T11:06:12.389Z,32.28
2019-03-31T11:09:10.523Z,33.58
2019-03-31T11:12:08.946Z,35.83
2019-03-31T11:15:07.950Z,29.90
2019-03-31T11:18:06.135Z,32.03
2019-03-31T11:21:09.302Z,29.60
2019-03-31T11:24:07.269Z,38.92
2019-03-31T11:27:04.632Z,28.25
2019-03-31T11:30:18.068Z,24.80
2019-03-31T11:33:16.662Z,20.97
2019-03-31T11:36:16.321Z,21.87
2019-03-31T11:39:18.927Z,18.80
2019-03-31T11:42:21.353Z,19.27
2019-03-31T11:45:21.915Z,17.20
2019-03-31T11:48:19.179Z,16.37
2019-03-31T11:51:15.940Z,22.40
2019-03-31T11:54:14.249Z,23.45
2019-03-31T11:57:11.243Z,22.17
2019-03-31T12:00:08.350Z,18.95
2019-03-31T12:03:05.086Z,15.00
2019-03-31T12:06:01.825Z,14.43
2019-03-31T12:08:58.441Z,14.68
2019-03-31T12:11:55.223Z,14.40
2019-03-31T12:15:00.409Z,16.15
2019-03-31T12:17:48.695Z,16.40
2019-03-31T12:20:45.224Z,16.87
2019-03-31T12:23:46.152Z,16.48
2019-03-31T12:26:49.288Z,15.88
2019-03-31T12:29:47.482Z,16.60
2019-03-31T12:32:44.037Z,17.73
2019-03-31T12:35:42.621Z,23.27
2019-03-31T12:38:54.081Z,23.10
2019-03-31T12:41:52.258Z,26.45
2019-03-31T12:44:49.801Z,29.55
2019-03-31T12:47:47.060Z,25.05
2019-03-31T12:50:44.073Z,22.70
2019-03-31T12:53:42.457Z,19.52
2019-03-31T12:56:41.754Z,22.13
2019-03-31T12:59:52.843Z,19.48
2019-03-31T13:02:50.653Z,20.62
2019-03-31T13:05:47.434Z,21.90
2019-03-31T13:08:45.032Z,23.67
2019-03-31T13:11:44.829Z,24.70
2019-03-31T13:14:43.812Z,24.57
2019-03-31T13:17:40.734Z,29.77
2019-03-31T13:20:38.702Z,31.20
2019-03-31T13:23:36.376Z,25.97
2019-03-31T13:26:34.286Z,24.50
2019-03-31T13:29:31.015Z,23.20
2019-03-31T13:32:28.223Z,25.70
2019-03-31T13:35:26.169Z,28.65
2019-03-31T13:38:22.580Z,25.15
2019-03-31T13:41:18.997Z,24.27
2019-03-31T13:44:16.124Z,29.37
2019-03-31T13:47:12.691Z,24.65
2019-03-31T13:50:09.893Z,25.90
2019-03-31T13:53:06.989Z,26.00
2019-03-31T13:56:03.322Z,25.68
2019-03-31T13:59:00.518Z,26.55
2019-03-31T14:02:00.060Z,33.02
2019-03-31T14:04:54.737Z,40.92
2019-03-31T14:07:51.893Z,29.10
2019-03-31T14:10:48.404Z,35.33
2019-03-31T14:13:44.806Z,27.90
2019-03-31T14:16:41.952Z,25.90
2019-03-31T14:19:38.572Z,28.67
2019-03-31T14:22:35.027Z,31.27
2019-03-31T14:25:31.638Z,31.23
2019-03-31T14:28:28.223Z,31.17
2019-03-31T14:31:25.394Z,32.85
2019-03-31T14:34:21.939Z,36.28
2019-03-31T14:37:19.329Z,33.78
2019-03-31T14:40:17.731Z,36.15
2019-03-31T14:43:14.469Z,37.28
2019-03-31T14:46:11.135Z,37.70
2019-03-31T14:49:07.986Z,38.13
2019-03-31T14:52:04.438Z,49.53
2019-03-31T14:55:01.241Z,40.95
2019-03-31T14:57:58.061Z,40.98
2019-03-31T15:00:54.406Z,41.75
2019-03-31T15:03:50.973Z,48.38
2019-03-31T15:06:47.395Z,42.05
2019-03-31T15:09:44.125Z,47.90
2019-03-31T15:12:40.771Z,49.40
2019-03-31T15:15:37.156Z,49.55
2019-03-31T15:18:33.936Z,71.77
2019-03-31T15:21:30.949Z,64.10
2019-03-31T15:24:27.331Z,53.10
2019-03-31T15:27:25.437Z,53.73
2019-03-31T15:30:22.495Z,55.55
2019-03-31T15:33:19.499Z,54.63
2019-03-31T15:36:17.909Z,52.30
2019-03-31T15:39:14.930Z,52.17
2019-03-31T15:42:12.022Z,45.90
2019-03-31T15:45:10.182Z,43.83
2019-03-31T15:48:07.093Z,46.05
2019-03-31T15:51:03.636Z,44.88
2019-03-31T15:54:00.089Z,47.27
2019-03-31T15:56:56.699Z,50.08
2019-03-31T16:00:01.505Z,45.10
2019-03-31T16:02:58.084Z,48.78
2019-03-31T16:05:54.993Z,48.78
2019-03-31T16:08:51.910Z,51.88
2019-03-31T16:11:53.843Z,48.25
2019-03-31T16:14:44.062Z,54.05
2019-03-31T16:17:40.059Z,52.73
2019-03-31T16:20:35.237Z,50.17
2019-03-31T16:23:31.071Z,49.23
2019-03-31T16:26:26.607Z,47.95
2019-03-31T16:29:22.013Z,55.12
2019-03-31T16:32:18.310Z,49.45
2019-03-31T16:35:13.649Z,49.45
2019-03-31T16:38:09.438Z,46.77
2019-03-31T16:41:06.204Z,45.75
2019-03-31T16:44:01.682Z,46.45
2019-03-31T16:46:57.880Z,46.92
2019-03-31T16:49:53.456Z,47.17
2019-03-31T16:52:48.818Z,47.53
2019-03-31T16:55:44.144Z,54.25
2019-03-31T16:58:39.721Z,46.33
2019-03-31T17:01:37.052Z,45.88
2019-03-31T17:04:32.627Z,44.23
2019-03-31T17:07:28.206Z,44.00
2019-03-31T17:10:24.264Z,45.52
2019-03-31T17:13:19.973Z,45.52
2019-03-31T17:16:15.716Z,45.88
2019-03-31T17:19:11.720Z,46.60
2019-03-31T17:22:07.304Z,49.67
2019-03-31T17:25:03.083Z,49.23
2019-03-31T17:27:59.261Z,47.70
2019-03-31T17:30:54.503Z,47.40
2019-03-31T17:33:50.210Z,47.45
2019-03-31T17:36:45.867Z,43.52
2019-03-31T17:39:41.655Z,42.55
2019-03-31T17:42:37.536Z,39.88
2019-03-31T17:45:34.738Z,36.35
2019-03-31T17:48:30.165Z,35.95
2019-03-31T17:51:25.592Z,33.05
2019-03-31T17:54:21.081Z,31.68
2019-03-31T17:57:16.677Z,31.12
2019-03-31T18:00:13.774Z,31.02
2019-03-31T18:03:09.394Z,30.20
2019-03-31T18:06:05.303Z,30.05
2019-03-31T18:09:01.150Z,29.42
2019-03-31T18:11:56.900Z,31.25
2019-03-31T18:14:52.591Z,33.00
2019-03-31T18:17:48.812Z,31.85
2019-03-31T18:20:44.123Z,34.67
2019-03-31T18:23:41.269Z,34.58
2019-03-31T18:26:36.976Z,34.90
2019-03-31T18:29:32.778Z,34.80
2019-03-31T18:32:28.424Z,34.27
2019-03-31T18:35:23.450Z,33.92
2019-03-31T18:38:19.123Z,34.35
2019-03-31T18:41:14.659Z,36.63
2019-03-31T18:44:10.119Z,38.15
2019-03-31T18:47:06.734Z,33.90
2019-03-31T18:50:01.794Z,31.75
2019-03-31T18:52:57.703Z,30.48
2019-03-31T18:56:08.635Z,29.95
2019-03-31T18:59:20.275Z,27.15
2019-03-31T19:02:31.988Z,27.27
2019-03-31T19:05:47.991Z,26.12
2019-03-31T19:08:58.148Z,26.50
2019-03-31T19:12:11.000Z,25.82
2019-03-31T19:15:22.663Z,25.50
2019-03-31T19:18:35.774Z,27.35
2019-03-31T19:21:42.299Z,27.20
2019-03-31T19:24:46.178Z,25.80
2019-03-31T19:27:53.457Z,26.10
2019-03-31T19:31:06.771Z,29.48
2019-03-31T19:34:23.040Z,34.75
2019-03-31T19:37:29.483Z,26.77
2019-03-31T19:40:41.660Z,27.10
2019-03-31T19:43:46.565Z,27.35
2019-03-31T19:46:59.144Z,25.80
2019-03-31T19:50:06.042Z,27.52
2019-03-31T19:53:19.208Z,24.50
2019-03-31T19:56:31.841Z,27.65
2019-03-31T19:59:47.721Z,25.92
2019-03-31T20:02:50.466Z,26.10
2019-03-31T20:06:06.013Z,25.02
2019-03-31T20:09:18.090Z,25.48
2019-03-31T20:12:33.550Z,24.98
2019-03-31T20:15:46.497Z,25.65
2019-03-31T20:19:11.114Z,26.75
2019-03-31T20:22:20.776Z,25.80
2019-03-31T20:25:39.577Z,25.45
2019-03-31T20:28:40.923Z,26.95
2019-03-31T20:31:56.365Z,28.05
2019-03-31T20:35:05.464Z,27.35
2019-03-31T20:38:18.606Z,26.10
2019-03-31T20:41:33.674Z,26.15
2019-03-31T20:44:29.659Z,26.45
2019-03-31T20:47:25.087Z,25.50
2019-03-31T20:50:20.324Z,26.77
2019-03-31T20:53:15.663Z,25.85
2019-03-31T20:56:10.703Z,26.42
2019-03-31T20:59:06.074Z,26.93
2019-03-31T21:02:01.432Z,27.67
2019-03-31T21:04:57.185Z,26.70
2019-03-31T21:07:52.671Z,27.32
2019-03-31T21:10:48.277Z,26.65
2019-03-31T21:13:43.951Z,27.35
2019-03-31T21:16:39.536Z,27.02
2019-03-31T21:19:34.682Z,26.87
2019-03-31T21:22:30.098Z,27.27
2019-03-31T21:25:25.280Z,25.40
2019-03-31T21:28:20.446Z,25.82
2019-03-31T21:31:15.703Z,25.40
2019-03-31T21:34:11.550Z,25.40
2019-03-31T21:37:06.730Z,25.30
2019-03-31T21:40:01.830Z,30.30
2019-03-31T21:42:56.964Z,25.20
2019-03-31T21:45:53.093Z,25.23
2019-03-31T21:48:48.448Z,24.87
2019-03-31T21:51:44.005Z,26.07
2019-03-31T21:54:39.484Z,25.27
2019-03-31T21:57:35.370Z,25.00
2019-03-31T22:00:51.895Z,24.72
2019-03-31T22:03:47.568Z,25.45
2019-03-31T22:06:43.224Z,25.35
2019-03-31T22:09:38.799Z,25.25
2019-03-31T22:12:33.947Z,25.95
2019-03-31T22:15:29.532Z,25.48
2019-03-31T22:18:25.177Z,26.27
2019-03-31T22:21:21.089Z,26.80
2019-03-31T22:24:15.935Z,26.20
2019-03-31T22:27:11.679Z,27.55
2019-03-31T22:30:07.099Z,27.20
2019-03-31T22:33:02.739Z,28.35
2019-03-31T22:36:24.339Z,28.25
2019-03-31T22:39:19.765Z,29.67
2019-03-31T22:42:15.461Z,29.55
2019-03-31T22:45:11.113Z,29.82
2019-03-31T22:48:06.826Z,30.43
2019-03-31T22:51:02.599Z,30.23
2019-03-31T22:53:58.170Z,29.52
2019-03-31T22:56:53.446Z,29.77
2019-03-31T22:59:49.470Z,30.72
2019-03-31T23:02:44.875Z,31.05
2019-03-31T23:05:40.252Z,32.70
2019-03-31T23:08:36.587Z,31.60
2019-03-31T23:11:31.966Z,31.90
2019-03-31T23:14:27.319Z,33.90
2019-03-31T23:17:22.604Z,33.83
2019-03-31T23:20:18.225Z,32.10
2019-03-31T23:23:14.138Z,31.80
2019-03-31T23:26:09.743Z,32.17
2019-03-31T23:29:05.076Z,33.35
2019-03-31T23:32:01.067Z,31.95
2019-03-31T23:34:56.490Z,32.55
2019-03-31T23:37:52.202Z,32.08
2019-03-31T23:40:47.589Z,31.50
2019-03-31T23:43:42.824Z,32.35
2019-03-31T23:46:38.330Z,33.00
2019-03-31T23:49:34.331Z,32.65
2019-03-31T23:52:29.971Z,33.23
2019-03-31T23:55:25.615Z,35.63
2019-03-31T23:58:20.899Z,37.85
